sensor_id;sensor_type;location;lat;lon;timestamp;P1;durP1;ratioP1;P2;durP2;ratioP2
22146;SDS011;13074;48.298;14.424;2023-02-04T00:02:15;13.83;;;2.50;;
22146;SDS011;13074;48.298;14.424;2023-02-04T00:04:42;5.93;;;2.13;;
22146;SDS011;13074;48.298;14.424;2023-02-04T00:07:09;7.90;;;1.87;;
22146;SDS011;13074;48.298;14.424;2023-02-04T00:09:36;9.80;;;2.47;;
22146;SDS011;13074;48.298;14.424;2023-02-04T00:12:04;9.20;;;2.27;;
22146;SDS011;13074;48.298;14.424;2023-02-04T00:14:31;8.63;;;2.10;;
22146;SDS011;13074;48.298;14.424;2023-02-04T00:17:00;8.57;;;2.40;;
22146;SDS011;13074;48.298;14.424;2023-02-04T00:19:27;13.03;;;2.67;;
22146;SDS011;13074;48.298;14.424;2023-02-04T00:21:54;7.67;;;2.30;;
22146;SDS011;13074;48.298;14.424;2023-02-04T00:24:21;9.60;;;2.30;;
22146;SDS011;13074;48.298;14.424;2023-02-04T00:26:48;13.70;;;2.67;;
22146;SDS011;13074;48.298;14.424;2023-02-04T00:29:15;5.30;;;1.67;;
22146;SDS011;13074;48.298;14.424;2023-02-04T00:31:43;11.30;;;2.10;;
22146;SDS011;13074;48.298;14.424;2023-02-04T00:34:11;8.17;;;2.50;;
22146;SDS011;13074;48.298;14.424;2023-02-04T00:36:38;10.67;;;2.53;;
22146;SDS011;13074;48.298;14.424;2023-02-04T00:39:05;7.10;;;1.90;;
22146;SDS011;13074;48.298;14.424;2023-02-04T00:41:33;7.17;;;2.47;;
22146;SDS011;13074;48.298;14.424;2023-02-04T00:44:00;12.17;;;2.60;;
22146;SDS011;13074;48.298;14.424;2023-02-04T00:46:27;9.77;;;2.20;;
22146;SDS011;13074;48.298;14.424;2023-02-04T00:48:54;8.47;;;2.07;;
22146;SDS011;13074;48.298;14.424;2023-02-04T00:51:23;7.83;;;2.13;;
22146;SDS011;13074;48.298;14.424;2023-02-04T00:53:50;12.50;;;2.33;;
22146;SDS011;13074;48.298;14.424;2023-02-04T00:56:17;8.47;;;2.20;;
22146;SDS011;13074;48.298;14.424;2023-02-04T00:58:44;8.27;;;2.00;;
22146;SDS011;13074;48.298;14.424;2023-02-04T01:01:11;6.27;;;2.00;;
22146;SDS011;13074;48.298;14.424;2023-02-04T01:03:39;7.37;;;2.30;;
22146;SDS011;13074;48.298;14.424;2023-02-04T01:06:06;12.97;;;3.30;;
22146;SDS011;13074;48.298;14.424;2023-02-04T01:08:34;8.10;;;2.10;;
22146;SDS011;13074;48.298;14.424;2023-02-04T01:11:02;6.80;;;2.07;;
22146;SDS011;13074;48.298;14.424;2023-02-04T01:13:29;9.43;;;2.43;;
22146;SDS011;13074;48.298;14.424;2023-02-04T01:15:56;11.00;;;2.30;;
22146;SDS011;13074;48.298;14.424;2023-02-04T01:18:23;4.50;;;1.50;;
22146;SDS011;13074;48.298;14.424;2023-02-04T01:20:51;6.43;;;1.90;;
22146;SDS011;13074;48.298;14.424;2023-02-04T01:23:18;7.00;;;2.27;;
22146;SDS011;13074;48.298;14.424;2023-02-04T01:25:46;7.03;;;2.40;;
22146;SDS011;13074;48.298;14.424;2023-02-04T01:28:14;6.03;;;2.00;;
22146;SDS011;13074;48.298;14.424;2023-02-04T01:30:41;6.10;;;2.17;;
22146;SDS011;13074;48.298;14.424;2023-02-04T01:33:08;7.73;;;2.37;;
22146;SDS011;13074;48.298;14.424;2023-02-04T01:35:35;10.50;;;2.20;;
22146;SDS011;13074;48.298;14.424;2023-02-04T01:38:02;10.07;;;2.43;;
22146;SDS011;13074;48.298;14.424;2023-02-04T01:40:29;10.80;;;2.33;;
22146;SDS011;13074;48.298;14.424;2023-02-04T01:42:58;7.30;;;2.20;;
22146;SDS011;13074;48.298;14.424;2023-02-04T01:45:25;7.90;;;2.30;;
22146;SDS011;13074;48.298;14.424;2023-02-04T01:47:54;9.77;;;2.00;;
22146;SDS011;13074;48.298;14.424;2023-02-04T01:50:22;9.77;;;3.17;;
22146;SDS011;13074;48.298;14.424;2023-02-04T01:52:49;7.50;;;2.37;;
22146;SDS011;13074;48.298;14.424;2023-02-04T01:55:17;5.87;;;1.67;;
22146;SDS011;13074;48.298;14.424;2023-02-04T01:57:46;5.97;;;2.23;;
22146;SDS011;13074;48.298;14.424;2023-02-04T02:00:17;9.23;;;1.90;;
22146;SDS011;13074;48.298;14.424;2023-02-04T02:02:48;8.03;;;2.00;;
22146;SDS011;13074;48.298;14.424;2023-02-04T02:05:18;6.20;;;2.27;;
22146;SDS011;13074;48.298;14.424;2023-02-04T02:07:47;7.37;;;2.10;;
22146;SDS011;13074;48.298;14.424;2023-02-04T02:10:16;4.70;;;2.07;;
22146;SDS011;13074;48.298;14.424;2023-02-04T02:12:44;7.33;;;2.30;;
22146;SDS011;13074;48.298;14.424;2023-02-04T02:15:12;5.67;;;2.17;;
22146;SDS011;13074;48.298;14.424;2023-02-04T02:17:41;5.17;;;1.93;;
22146;SDS011;13074;48.298;14.424;2023-02-04T02:20:10;7.37;;;2.67;;
22146;SDS011;13074;48.298;14.424;2023-02-04T02:22:39;11.10;;;2.43;;
22146;SDS011;13074;48.298;14.424;2023-02-04T02:25:15;10.67;;;2.60;;
22146;SDS011;13074;48.298;14.424;2023-02-04T02:27:43;6.20;;;2.23;;
22146;SDS011;13074;48.298;14.424;2023-02-04T02:30:11;4.80;;;2.07;;
22146;SDS011;13074;48.298;14.424;2023-02-04T02:32:41;6.63;;;1.90;;
22146;SDS011;13074;48.298;14.424;2023-02-04T02:35:09;10.17;;;2.40;;
22146;SDS011;13074;48.298;14.424;2023-02-04T02:37:37;6.63;;;2.00;;
22146;SDS011;13074;48.298;14.424;2023-02-04T02:40:04;5.03;;;2.13;;
22146;SDS011;13074;48.298;14.424;2023-02-04T02:42:35;7.53;;;2.07;;
22146;SDS011;13074;48.298;14.424;2023-02-04T02:45:04;13.77;;;2.40;;
22146;SDS011;13074;48.298;14.424;2023-02-04T02:47:36;7.13;;;2.10;;
22146;SDS011;13074;48.298;14.424;2023-02-04T02:50:04;12.37;;;2.93;;
22146;SDS011;13074;48.298;14.424;2023-02-04T02:52:32;8.73;;;2.50;;
22146;SDS011;13074;48.298;14.424;2023-02-04T02:54:59;10.80;;;2.50;;
22146;SDS011;13074;48.298;14.424;2023-02-04T02:57:27;5.90;;;1.73;;
22146;SDS011;13074;48.298;14.424;2023-02-04T02:59:56;10.73;;;2.10;;
22146;SDS011;13074;48.298;14.424;2023-02-04T03:02:23;9.47;;;2.23;;
22146;SDS011;13074;48.298;14.424;2023-02-04T03:04:51;9.00;;;2.37;;
22146;SDS011;13074;48.298;14.424;2023-02-04T03:07:21;9.80;;;2.40;;
22146;SDS011;13074;48.298;14.424;2023-02-04T03:09:49;5.43;;;1.93;;
22146;SDS011;13074;48.298;14.424;2023-02-04T03:12:17;7.70;;;1.83;;
22146;SDS011;13074;48.298;14.424;2023-02-04T03:14:45;7.57;;;2.47;;
22146;SDS011;13074;48.298;14.424;2023-02-04T03:17:14;10.90;;;2.23;;
22146;SDS011;13074;48.298;14.424;2023-02-04T03:19:41;5.17;;;2.20;;
22146;SDS011;13074;48.298;14.424;2023-02-04T03:22:08;7.40;;;2.10;;
22146;SDS011;13074;48.298;14.424;2023-02-04T03:24:35;8.83;;;2.23;;
22146;SDS011;13074;48.298;14.424;2023-02-04T03:27:03;6.73;;;2.00;;
22146;SDS011;13074;48.298;14.424;2023-02-04T03:29:30;10.23;;;2.30;;
22146;SDS011;13074;48.298;14.424;2023-02-04T03:31:57;6.47;;;2.00;;
22146;SDS011;13074;48.298;14.424;2023-02-04T03:34:26;8.73;;;2.03;;
22146;SDS011;13074;48.298;14.424;2023-02-04T03:36:53;9.37;;;2.27;;
22146;SDS011;13074;48.298;14.424;2023-02-04T03:39:20;6.10;;;1.97;;
22146;SDS011;13074;48.298;14.424;2023-02-04T03:41:47;5.83;;;2.03;;
22146;SDS011;13074;48.298;14.424;2023-02-04T03:44:15;5.70;;;2.17;;
22146;SDS011;13074;48.298;14.424;2023-02-04T03:46:42;9.77;;;2.07;;
22146;SDS011;13074;48.298;14.424;2023-02-04T03:49:10;4.43;;;2.20;;
22146;SDS011;13074;48.298;14.424;2023-02-04T03:51:38;11.67;;;2.50;;
22146;SDS011;13074;48.298;14.424;2023-02-04T03:54:05;10.87;;;2.37;;
22146;SDS011;13074;48.298;14.424;2023-02-04T03:56:32;9.40;;;2.37;;
22146;SDS011;13074;48.298;14.424;2023-02-04T03:58:59;9.80;;;2.50;;
22146;SDS011;13074;48.298;14.424;2023-02-04T04:01:27;7.63;;;2.33;;
22146;SDS011;13074;48.298;14.424;2023-02-04T04:03:54;8.47;;;2.00;;
22146;SDS011;13074;48.298;14.424;2023-02-04T04:06:21;11.73;;;2.10;;
22146;SDS011;13074;48.298;14.424;2023-02-04T04:08:50;6.20;;;1.63;;
22146;SDS011;13074;48.298;14.424;2023-02-04T04:11:17;5.50;;;2.53;;
22146;SDS011;13074;48.298;14.424;2023-02-04T04:13:46;4.27;;;1.97;;
22146;SDS011;13074;48.298;14.424;2023-02-04T04:16:13;16.27;;;2.20;;
22146;SDS011;13074;48.298;14.424;2023-02-04T04:18:40;4.63;;;2.00;;
22146;SDS011;13074;48.298;14.424;2023-02-04T04:21:07;12.37;;;1.97;;
22146;SDS011;13074;48.298;14.424;2023-02-04T04:23:34;7.20;;;2.10;;
22146;SDS011;13074;48.298;14.424;2023-02-04T04:26:03;6.43;;;2.53;;
22146;SDS011;13074;48.298;14.424;2023-02-04T04:28:30;9.37;;;2.10;;
22146;SDS011;13074;48.298;14.424;2023-02-04T04:30:57;9.30;;;2.30;;
22146;SDS011;13074;48.298;14.424;2023-02-04T04:33:25;6.83;;;2.20;;
22146;SDS011;13074;48.298;14.424;2023-02-04T04:35:52;6.67;;;2.10;;
22146;SDS011;13074;48.298;14.424;2023-02-04T04:38:19;9.87;;;2.27;;
22146;SDS011;13074;48.298;14.424;2023-02-04T04:40:46;8.97;;;2.03;;
22146;SDS011;13074;48.298;14.424;2023-02-04T04:43:15;6.23;;;2.10;;
22146;SDS011;13074;48.298;14.424;2023-02-04T04:45:42;7.10;;;2.00;;
22146;SDS011;13074;48.298;14.424;2023-02-04T04:48:09;5.43;;;2.50;;
22146;SDS011;13074;48.298;14.424;2023-02-04T04:50:36;9.50;;;2.50;;
22146;SDS011;13074;48.298;14.424;2023-02-04T04:53:03;8.93;;;1.80;;
22146;SDS011;13074;48.298;14.424;2023-02-04T04:55:35;4.20;;;1.77;;
22146;SDS011;13074;48.298;14.424;2023-02-04T04:58:02;8.47;;;1.90;;
22146;SDS011;13074;48.298;14.424;2023-02-04T05:00:30;4.83;;;1.50;;
22146;SDS011;13074;48.298;14.424;2023-02-04T05:02:57;8.30;;;2.10;;
22146;SDS011;13074;48.298;14.424;2023-02-04T05:05:25;5.80;;;2.07;;
22146;SDS011;13074;48.298;14.424;2023-02-04T05:07:52;14.03;;;2.70;;
22146;SDS011;13074;48.298;14.424;2023-02-04T05:10:19;10.87;;;1.97;;
22146;SDS011;13074;48.298;14.424;2023-02-04T05:12:46;9.73;;;2.07;;
22146;SDS011;13074;48.298;14.424;2023-02-04T05:15:14;5.80;;;2.30;;
22146;SDS011;13074;48.298;14.424;2023-02-04T05:17:42;14.77;;;2.90;;
22146;SDS011;13074;48.298;14.424;2023-02-04T05:20:10;12.20;;;2.23;;
22146;SDS011;13074;48.298;14.424;2023-02-04T05:22:37;6.63;;;2.23;;
22146;SDS011;13074;48.298;14.424;2023-02-04T05:25:05;7.10;;;1.73;;
22146;SDS011;13074;48.298;14.424;2023-02-04T05:27:32;4.87;;;1.93;;
22146;SDS011;13074;48.298;14.424;2023-02-04T05:29:59;9.70;;;1.87;;
22146;SDS011;13074;48.298;14.424;2023-02-04T05:32:26;4.53;;;1.50;;
22146;SDS011;13074;48.298;14.424;2023-02-04T05:34:55;6.03;;;1.47;;
22146;SDS011;13074;48.298;14.424;2023-02-04T05:37:22;7.53;;;1.43;;
22146;SDS011;13074;48.298;14.424;2023-02-04T05:39:49;2.67;;;1.20;;
22146;SDS011;13074;48.298;14.424;2023-02-04T05:42:17;1.90;;;1.00;;
22146;SDS011;13074;48.298;14.424;2023-02-04T05:44:44;1.63;;;1.00;;
22146;SDS011;13074;48.298;14.424;2023-02-04T05:47:11;1.17;;;0.80;;
22146;SDS011;13074;48.298;14.424;2023-02-04T05:49:38;1.23;;;0.93;;
22146;SDS011;13074;48.298;14.424;2023-02-04T05:52:07;1.77;;;1.03;;
22146;SDS011;13074;48.298;14.424;2023-02-04T05:54:34;1.93;;;0.70;;
22146;SDS011;13074;48.298;14.424;2023-02-04T05:57:01;2.40;;;0.97;;
22146;SDS011;13074;48.298;14.424;2023-02-04T05:59:29;2.90;;;1.00;;
22146;SDS011;13074;48.298;14.424;2023-02-04T06:01:56;2.97;;;1.20;;
22146;SDS011;13074;48.298;14.424;2023-02-04T06:04:23;5.83;;;1.40;;
22146;SDS011;13074;48.298;14.424;2023-02-04T06:06:51;2.37;;;0.90;;
22146;SDS011;13074;48.298;14.424;2023-02-04T06:09:19;4.60;;;1.00;;
22146;SDS011;13074;48.298;14.424;2023-02-04T06:11:47;0.70;;;0.70;;
22146;SDS011;13074;48.298;14.424;2023-02-04T06:14:15;1.43;;;1.00;;
22146;SDS011;13074;48.298;14.424;2023-02-04T06:16:42;1.13;;;0.93;;
22146;SDS011;13074;48.298;14.424;2023-02-04T06:19:09;0.80;;;0.80;;
22146;SDS011;13074;48.298;14.424;2023-02-04T06:21:38;1.73;;;0.80;;
22146;SDS011;13074;48.298;14.424;2023-02-04T06:24:05;0.63;;;0.63;;
22146;SDS011;13074;48.298;14.424;2023-02-04T06:26:34;1.13;;;1.03;;
22146;SDS011;13074;48.298;14.424;2023-02-04T06:29:01;0.70;;;0.70;;
22146;SDS011;13074;48.298;14.424;2023-02-04T06:31:28;0.73;;;0.70;;
22146;SDS011;13074;48.298;14.424;2023-02-04T06:33:55;0.70;;;0.70;;
22146;SDS011;13074;48.298;14.424;2023-02-04T06:36:23;1.60;;;0.90;;
22146;SDS011;13074;48.298;14.424;2023-02-04T06:38:50;1.23;;;0.80;;
22146;SDS011;13074;48.298;14.424;2023-02-04T06:41:17;0.87;;;0.70;;
22146;SDS011;13074;48.298;14.424;2023-02-04T06:43:45;0.60;;;0.60;;
22146;SDS011;13074;48.298;14.424;2023-02-04T06:46:13;1.50;;;0.70;;
22146;SDS011;13074;48.298;14.424;2023-02-04T06:48:40;0.83;;;0.77;;
22146;SDS011;13074;48.298;14.424;2023-02-04T06:51:07;1.30;;;0.70;;
22146;SDS011;13074;48.298;14.424;2023-02-04T06:53:34;0.70;;;0.70;;
22146;SDS011;13074;48.298;14.424;2023-02-04T06:56:01;1.17;;;0.90;;
22146;SDS011;13074;48.298;14.424;2023-02-04T06:58:29;2.70;;;1.60;;
22146;SDS011;13074;48.298;14.424;2023-02-04T07:00:57;3.00;;;1.73;;
22146;SDS011;13074;48.298;14.424;2023-02-04T07:03:24;1.13;;;0.87;;
22146;SDS011;13074;48.298;14.424;2023-02-04T07:05:52;0.73;;;0.70;;
22146;SDS011;13074;48.298;14.424;2023-02-04T07:08:19;1.63;;;0.63;;
22146;SDS011;13074;48.298;14.424;2023-02-04T07:10:46;1.00;;;0.90;;
22146;SDS011;13074;48.298;14.424;2023-02-04T07:13:14;1.67;;;1.00;;
22146;SDS011;13074;48.298;14.424;2023-02-04T07:15:41;0.80;;;0.80;;
22146;SDS011;13074;48.298;14.424;2023-02-04T07:18:09;0.70;;;0.70;;
22146;SDS011;13074;48.298;14.424;2023-02-04T07:20:36;1.03;;;0.90;;
22146;SDS011;13074;48.298;14.424;2023-02-04T07:23:04;2.10;;;0.80;;
22146;SDS011;13074;48.298;14.424;2023-02-04T07:25:31;1.00;;;0.90;;
22146;SDS011;13074;48.298;14.424;2023-02-04T07:27:58;2.57;;;0.83;;
22146;SDS011;13074;48.298;14.424;2023-02-04T07:30:26;1.27;;;1.00;;
22146;SDS011;13074;48.298;14.424;2023-02-04T07:32:53;0.80;;;0.80;;
22146;SDS011;13074;48.298;14.424;2023-02-04T07:35:21;0.80;;;0.80;;
22146;SDS011;13074;48.298;14.424;2023-02-04T07:37:49;0.77;;;0.77;;
22146;SDS011;13074;48.298;14.424;2023-02-04T07:40:16;1.60;;;1.27;;
22146;SDS011;13074;48.298;14.424;2023-02-04T07:42:43;1.47;;;1.00;;
22146;SDS011;13074;48.298;14.424;2023-02-04T07:45:11;1.80;;;0.87;;
22146;SDS011;13074;48.298;14.424;2023-02-04T07:47:38;1.03;;;0.80;;
22146;SDS011;13074;48.298;14.424;2023-02-04T07:50:05;0.60;;;0.60;;
22146;SDS011;13074;48.298;14.424;2023-02-04T07:52:34;0.70;;;0.70;;
22146;SDS011;13074;48.298;14.424;2023-02-04T07:55:01;1.47;;;0.93;;
22146;SDS011;13074;48.298;14.424;2023-02-04T07:57:29;2.60;;;0.80;;
22146;SDS011;13074;48.298;14.424;2023-02-04T07:59:56;3.07;;;1.10;;
22146;SDS011;13074;48.298;14.424;2023-02-04T08:02:23;1.00;;;0.90;;
22146;SDS011;13074;48.298;14.424;2023-02-04T08:04:50;0.73;;;0.73;;
22146;SDS011;13074;48.298;14.424;2023-02-04T08:07:18;1.60;;;1.03;;
22146;SDS011;13074;48.298;14.424;2023-02-04T08:09:47;1.33;;;1.10;;
22146;SDS011;13074;48.298;14.424;2023-02-04T08:12:14;2.97;;;0.90;;
22146;SDS011;13074;48.298;14.424;2023-02-04T08:14:41;1.27;;;1.17;;
22146;SDS011;13074;48.298;14.424;2023-02-04T08:17:08;2.40;;;1.50;;
22146;SDS011;13074;48.298;14.424;2023-02-04T08:19:35;1.17;;;0.90;;
22146;SDS011;13074;48.298;14.424;2023-02-04T08:22:02;1.93;;;1.13;;
22146;SDS011;13074;48.298;14.424;2023-02-04T08:24:30;1.50;;;1.20;;
22146;SDS011;13074;48.298;14.424;2023-02-04T08:26:58;1.70;;;1.07;;
22146;SDS011;13074;48.298;14.424;2023-02-04T08:29:25;1.57;;;1.30;;
22146;SDS011;13074;48.298;14.424;2023-02-04T08:31:53;1.70;;;1.30;;
22146;SDS011;13074;48.298;14.424;2023-02-04T08:34:20;1.20;;;1.10;;
22146;SDS011;13074;48.298;14.424;2023-02-04T08:36:47;1.83;;;1.20;;
22146;SDS011;13074;48.298;14.424;2023-02-04T08:39:14;2.27;;;1.37;;
22146;SDS011;13074;48.298;14.424;2023-02-04T08:41:41;1.70;;;1.60;;
22146;SDS011;13074;48.298;14.424;2023-02-04T08:44:10;1.90;;;1.60;;
22146;SDS011;13074;48.298;14.424;2023-02-04T08:46:37;1.30;;;1.20;;
22146;SDS011;13074;48.298;14.424;2023-02-04T08:49:04;2.00;;;1.80;;
22146;SDS011;13074;48.298;14.424;2023-02-04T08:51:32;1.50;;;1.40;;
22146;SDS011;13074;48.298;14.424;2023-02-04T08:53:59;2.63;;;1.57;;
22146;SDS011;13074;48.298;14.424;2023-02-04T08:56:26;1.70;;;1.60;;
22146;SDS011;13074;48.298;14.424;2023-02-04T08:58:53;1.73;;;1.20;;
22146;SDS011;13074;48.298;14.424;2023-02-04T09:01:22;2.50;;;1.80;;
22146;SDS011;13074;48.298;14.424;2023-02-04T09:03:49;1.47;;;1.27;;
22146;SDS011;13074;48.298;14.424;2023-02-04T09:06:16;1.90;;;1.50;;
22146;SDS011;13074;48.298;14.424;2023-02-04T09:08:43;1.93;;;1.60;;
22146;SDS011;13074;48.298;14.424;2023-02-04T09:11:10;1.67;;;1.33;;
22146;SDS011;13074;48.298;14.424;2023-02-04T09:13:39;1.67;;;1.47;;
22146;SDS011;13074;48.298;14.424;2023-02-04T09:16:06;1.30;;;1.20;;
22146;SDS011;13074;48.298;14.424;2023-02-04T09:18:35;1.20;;;1.10;;
22146;SDS011;13074;48.298;14.424;2023-02-04T09:21:02;1.60;;;1.30;;
22146;SDS011;13074;48.298;14.424;2023-02-04T09:23:29;2.17;;;1.07;;
22146;SDS011;13074;48.298;14.424;2023-02-04T09:25:57;1.40;;;1.17;;
22146;SDS011;13074;48.298;14.424;2023-02-04T09:28:25;1.83;;;1.33;;
22146;SDS011;13074;48.298;14.424;2023-02-04T09:30:52;1.30;;;1.20;;
22146;SDS011;13074;48.298;14.424;2023-02-04T09:33:19;1.60;;;1.27;;
22146;SDS011;13074;48.298;14.424;2023-02-04T09:35:49;2.23;;;1.50;;
22146;SDS011;13074;48.298;14.424;2023-02-04T09:38:16;1.43;;;1.27;;
22146;SDS011;13074;48.298;14.424;2023-02-04T09:40:51;1.93;;;1.40;;
22146;SDS011;13074;48.298;14.424;2023-02-04T09:43:21;4.63;;;1.57;;
22146;SDS011;13074;48.298;14.424;2023-02-04T09:45:49;1.40;;;1.17;;
22146;SDS011;13074;48.298;14.424;2023-02-04T09:48:17;1.73;;;1.30;;
22146;SDS011;13074;48.298;14.424;2023-02-04T09:50:45;1.97;;;1.40;;
22146;SDS011;13074;48.298;14.424;2023-02-04T09:53:14;2.40;;;1.73;;
22146;SDS011;13074;48.298;14.424;2023-02-04T09:55:46;1.40;;;1.20;;
22146;SDS011;13074;48.298;14.424;2023-02-04T09:58:15;1.47;;;1.10;;
22146;SDS011;13074;48.298;14.424;2023-02-04T10:00:43;1.53;;;1.20;;
22146;SDS011;13074;48.298;14.424;2023-02-04T10:03:13;1.90;;;1.30;;
22146;SDS011;13074;48.298;14.424;2023-02-04T10:05:42;1.27;;;1.13;;
22146;SDS011;13074;48.298;14.424;2023-02-04T10:08:11;1.50;;;1.23;;
22146;SDS011;13074;48.298;14.424;2023-02-04T10:10:42;2.43;;;1.50;;
22146;SDS011;13074;48.298;14.424;2023-02-04T10:13:13;3.10;;;1.43;;
22146;SDS011;13074;48.298;14.424;2023-02-04T10:15:43;1.30;;;1.20;;
22146;SDS011;13074;48.298;14.424;2023-02-04T10:18:11;3.23;;;1.30;;
22146;SDS011;13074;48.298;14.424;2023-02-04T10:20:45;1.80;;;1.50;;
22146;SDS011;13074;48.298;14.424;2023-02-04T10:23:12;1.77;;;1.30;;
22146;SDS011;13074;48.298;14.424;2023-02-04T10:25:41;1.23;;;1.10;;
22146;SDS011;13074;48.298;14.424;2023-02-04T10:28:08;1.70;;;1.37;;
22146;SDS011;13074;48.298;14.424;2023-02-04T10:30:39;1.20;;;1.10;;
22146;SDS011;13074;48.298;14.424;2023-02-04T10:33:11;1.90;;;1.20;;
22146;SDS011;13074;48.298;14.424;2023-02-04T10:35:43;1.57;;;1.20;;
22146;SDS011;13074;48.298;14.424;2023-02-04T10:38:11;1.57;;;1.30;;
22146;SDS011;13074;48.298;14.424;2023-02-04T10:40:38;1.53;;;1.30;;
22146;SDS011;13074;48.298;14.424;2023-02-04T10:43:08;1.50;;;1.13;;
22146;SDS011;13074;48.298;14.424;2023-02-04T10:45:36;1.40;;;1.10;;
22146;SDS011;13074;48.298;14.424;2023-02-04T10:48:04;4.40;;;1.50;;
22146;SDS011;13074;48.298;14.424;2023-02-04T10:50:32;2.33;;;1.23;;
22146;SDS011;13074;48.298;14.424;2023-02-04T10:52:59;1.53;;;1.20;;
22146;SDS011;13074;48.298;14.424;2023-02-04T10:55:46;1.00;;;0.93;;
22146;SDS011;13074;48.298;14.424;2023-02-04T10:58:16;1.53;;;1.17;;
22146;SDS011;13074;48.298;14.424;2023-02-04T11:00:48;1.93;;;1.33;;
22146;SDS011;13074;48.298;14.424;2023-02-04T11:03:17;1.30;;;1.20;;
22146;SDS011;13074;48.298;14.424;2023-02-04T11:05:47;1.80;;;1.43;;
22146;SDS011;13074;48.298;14.424;2023-02-04T11:08:19;1.20;;;1.10;;
22146;SDS011;13074;48.298;14.424;2023-02-04T11:10:50;1.30;;;1.20;;
22146;SDS011;13074;48.298;14.424;2023-02-04T11:13:22;1.73;;;1.47;;
22146;SDS011;13074;48.298;14.424;2023-02-04T11:16:05;1.20;;;1.00;;
22146;SDS011;13074;48.298;14.424;2023-02-04T11:18:42;1.50;;;1.20;;
22146;SDS011;13074;48.298;14.424;2023-02-04T11:21:13;1.40;;;1.20;;
22146;SDS011;13074;48.298;14.424;2023-02-04T11:23:47;1.87;;;1.17;;
22146;SDS011;13074;48.298;14.424;2023-02-04T11:26:16;2.53;;;1.17;;
22146;SDS011;13074;48.298;14.424;2023-02-04T11:29:07;1.57;;;1.30;;
22146;SDS011;13074;48.298;14.424;2023-02-04T11:31:44;2.90;;;1.50;;
22146;SDS011;13074;48.298;14.424;2023-02-04T11:34:24;1.40;;;1.30;;
22146;SDS011;13074;48.298;14.424;2023-02-04T11:36:54;1.20;;;1.10;;
22146;SDS011;13074;48.298;14.424;2023-02-04T11:39:31;1.30;;;1.20;;
22146;SDS011;13074;48.298;14.424;2023-02-04T11:42:02;1.27;;;1.17;;
22146;SDS011;13074;48.298;14.424;2023-02-04T11:44:30;0.83;;;0.83;;
22146;SDS011;13074;48.298;14.424;2023-02-04T11:47:06;1.70;;;1.30;;
22146;SDS011;13074;48.298;14.424;2023-02-04T11:49:34;1.50;;;1.03;;
22146;SDS011;13074;48.298;14.424;2023-02-04T11:52:05;1.30;;;1.00;;
22146;SDS011;13074;48.298;14.424;2023-02-04T11:54:38;2.53;;;1.40;;
22146;SDS011;13074;48.298;14.424;2023-02-04T11:57:08;1.83;;;1.17;;
22146;SDS011;13074;48.298;14.424;2023-02-04T11:59:37;1.73;;;1.47;;
22146;SDS011;13074;48.298;14.424;2023-02-04T12:02:05;1.57;;;1.30;;
22146;SDS011;13074;48.298;14.424;2023-02-04T12:04:39;1.37;;;1.13;;
22146;SDS011;13074;48.298;14.424;2023-02-04T12:07:20;1.67;;;1.20;;
22146;SDS011;13074;48.298;14.424;2023-02-04T12:09:50;1.50;;;1.30;;
22146;SDS011;13074;48.298;14.424;2023-02-04T12:12:26;1.50;;;1.20;;
22146;SDS011;13074;48.298;14.424;2023-02-04T12:14:55;1.90;;;1.47;;
22146;SDS011;13074;48.298;14.424;2023-02-04T12:17:23;1.10;;;1.00;;
22146;SDS011;13074;48.298;14.424;2023-02-04T12:19:50;0.70;;;0.70;;
22146;SDS011;13074;48.298;14.424;2023-02-04T12:22:17;1.13;;;0.97;;
22146;SDS011;13074;48.298;14.424;2023-02-04T12:24:44;1.30;;;1.20;;
22146;SDS011;13074;48.298;14.424;2023-02-04T12:27:12;1.13;;;1.00;;
22146;SDS011;13074;48.298;14.424;2023-02-04T12:29:40;1.30;;;1.20;;
22146;SDS011;13074;48.298;14.424;2023-02-04T12:32:07;1.67;;;1.40;;
22146;SDS011;13074;48.298;14.424;2023-02-04T12:34:34;1.40;;;1.30;;
22146;SDS011;13074;48.298;14.424;2023-02-04T12:37:04;1.30;;;1.10;;
22146;SDS011;13074;48.298;14.424;2023-02-04T12:39:32;1.77;;;1.43;;
22146;SDS011;13074;48.298;14.424;2023-02-04T12:41:59;1.50;;;1.30;;
22146;SDS011;13074;48.298;14.424;2023-02-04T12:44:26;1.97;;;1.57;;
22146;SDS011;13074;48.298;14.424;2023-02-04T12:46:55;1.70;;;1.13;;
22146;SDS011;13074;48.298;14.424;2023-02-04T12:49:22;1.20;;;1.10;;
22146;SDS011;13074;48.298;14.424;2023-02-04T12:51:49;2.07;;;1.30;;
22146;SDS011;13074;48.298;14.424;2023-02-04T12:54:17;1.57;;;0.97;;
22146;SDS011;13074;48.298;14.424;2023-02-04T12:56:44;1.13;;;1.00;;
22146;SDS011;13074;48.298;14.424;2023-02-04T12:59:13;1.10;;;1.00;;
22146;SDS011;13074;48.298;14.424;2023-02-04T13:01:40;1.40;;;1.20;;
22146;SDS011;13074;48.298;14.424;2023-02-04T13:04:09;1.33;;;1.13;;
22146;SDS011;13074;48.298;14.424;2023-02-04T13:06:36;2.03;;;1.23;;
22146;SDS011;13074;48.298;14.424;2023-02-04T13:09:03;2.27;;;1.23;;
22146;SDS011;13074;48.298;14.424;2023-02-04T13:11:30;1.50;;;1.40;;
22146;SDS011;13074;48.298;14.424;2023-02-04T13:13:57;1.63;;;1.20;;
22146;SDS011;13074;48.298;14.424;2023-02-04T13:16:25;1.53;;;1.33;;
22146;SDS011;13074;48.298;14.424;2023-02-04T13:18:52;1.10;;;1.00;;
22146;SDS011;13074;48.298;14.424;2023-02-04T13:21:20;1.10;;;0.97;;
22146;SDS011;13074;48.298;14.424;2023-02-04T13:23:48;1.30;;;1.20;;
22146;SDS011;13074;48.298;14.424;2023-02-04T13:26:15;1.20;;;1.10;;
22146;SDS011;13074;48.298;14.424;2023-02-04T13:28:42;2.27;;;1.40;;
22146;SDS011;13074;48.298;14.424;2023-02-04T13:31:09;1.37;;;1.27;;
22146;SDS011;13074;48.298;14.424;2023-02-04T13:33:36;1.47;;;1.10;;
22146;SDS011;13074;48.298;14.424;2023-02-04T13:36:04;1.10;;;1.00;;
22146;SDS011;13074;48.298;14.424;2023-02-04T13:38:33;1.20;;;1.10;;
22146;SDS011;13074;48.298;14.424;2023-02-04T13:41:00;1.23;;;1.13;;
22146;SDS011;13074;48.298;14.424;2023-02-04T13:43:27;1.43;;;1.20;;
22146;SDS011;13074;48.298;14.424;2023-02-04T13:45:54;2.30;;;1.20;;
22146;SDS011;13074;48.298;14.424;2023-02-04T13:48:22;1.13;;;1.03;;
22146;SDS011;13074;48.298;14.424;2023-02-04T13:50:49;1.43;;;1.10;;
22146;SDS011;13074;48.298;14.424;2023-02-04T13:53:16;1.40;;;1.20;;
22146;SDS011;13074;48.298;14.424;2023-02-04T13:55:45;3.07;;;1.50;;
22146;SDS011;13074;48.298;14.424;2023-02-04T13:58:12;1.77;;;1.20;;
22146;SDS011;13074;48.298;14.424;2023-02-04T14:00:39;4.63;;;1.10;;
22146;SDS011;13074;48.298;14.424;2023-02-04T14:03:06;2.27;;;1.13;;
22146;SDS011;13074;48.298;14.424;2023-02-04T14:05:33;1.60;;;1.33;;
22146;SDS011;13074;48.298;14.424;2023-02-04T14:08:00;1.37;;;1.20;;
22146;SDS011;13074;48.298;14.424;2023-02-04T14:10:28;1.47;;;1.10;;
22146;SDS011;13074;48.298;14.424;2023-02-04T14:12:56;1.20;;;1.03;;
22146;SDS011;13074;48.298;14.424;2023-02-04T14:15:24;1.10;;;1.00;;
22146;SDS011;13074;48.298;14.424;2023-02-04T14:17:51;0.87;;;0.87;;
22146;SDS011;13074;48.298;14.424;2023-02-04T14:20:18;2.20;;;1.27;;
22146;SDS011;13074;48.298;14.424;2023-02-04T14:22:45;1.43;;;1.10;;
22146;SDS011;13074;48.298;14.424;2023-02-04T14:25:12;1.20;;;1.07;;
22146;SDS011;13074;48.298;14.424;2023-02-04T14:27:40;1.37;;;1.03;;
22146;SDS011;13074;48.298;14.424;2023-02-04T14:30:11;3.03;;;1.60;;
22146;SDS011;13074;48.298;14.424;2023-02-04T14:32:42;2.33;;;1.80;;
22146;SDS011;13074;48.298;14.424;2023-02-04T14:35:09;2.63;;;1.67;;
22146;SDS011;13074;48.298;14.424;2023-02-04T14:37:37;2.10;;;1.50;;
22146;SDS011;13074;48.298;14.424;2023-02-04T14:40:04;1.30;;;0.97;;